Time;durP1;ratioP1;P1;durP2;ratioP2;P2;SDS_P1;SDS_P2;PMS_P1;PMS_P2;Temp;Humidity;BMP_temperature;BMP_pressure;BME280_temperature;BME280_humidity;BME280_pressure;Samples;Min_cycle;Max_cycle;Signal;HPM_P1;HPM_P2
2022/09/25 00:04:55;;;;;;;82.70;48.80;;;;;;;7.87;76.34;98385.56;434457;1265;109372;-41
2022/09/25 00:15:02;;;;;;;68.10;40.10;;;;;;;7.75;76.50;98379.84;434518;1264;99225;-41
2022/09/25 00:25:12;;;;;;;68.30;41.40;;;;;;;7.72;76.64;98373.39;434690;1264;108703;-41
2022/09/25 00:35:18;;;;;;;71.10;43.10;;;;;;;7.68;76.86;98371.65;434749;1264;99219;-38
2022/09/25 00:45:25;;;;;;;68.20;39.70;;;;;;;7.58;77.14;98367.86;435279;1264;112351;-39
2022/09/25 00:55:30;;;;;;;82.60;43.00;;;;;;;7.48;77.53;98367.70;434789;1265;108990;-39
2022/09/25 01:15:45;;;;;;;72.20;41.70;;;;;;;7.49;77.89;98368.90;434760;1264;109013;-41
2022/09/25 01:26:00;;;;;;;79.70;47.90;;;;;;;7.47;78.06;98369.09;434687;1264;99225;-40
2022/09/25 01:36:09;;;;;;;84.10;47.80;;;;;;;7.33;78.33;98367.34;435038;1255;112384;-40
2022/09/25 01:46:20;;;;;;;65.30;39.90;;;;;;;7.23;78.35;98352.50;433965;1266;108719;-40
2022/09/25 01:56:34;;;;;;;66.30;40.40;;;;;;;7.26;78.52;98355.54;434131;1266;99225;-40
2022/09/25 02:16:56;;;;;;;60.10;36.20;;;;;;;7.26;78.83;98354.38;434037;1267;99247;-40
2022/09/25 02:27:03;;;;;;;57.00;36.50;;;;;;;7.23;78.88;98351.48;434310;1266;111401;-39
2022/09/25 02:37:10;;;;;;;60.50;39.10;;;;;;;7.26;79.06;98354.29;433771;1265;108749;-42
2022/09/25 02:47:19;;;;;;;66.70;42.60;;;;;;;7.26;79.23;98350.92;433928;1266;99225;-41
2022/09/25 02:57:29;;;;;;;64.70;41.80;;;;;;;7.19;79.50;98355.53;433984;1267;108812;-40
2022/09/25 03:18:00;;;;;;;52.80;33.40;;;;;;;7.19;79.71;98346.59;434183;1265;112318;-40
2022/09/25 03:28:09;;;;;;;47.80;31.30;;;;;;;7.28;79.92;98338.09;433937;1266;109021;-40
2022/09/25 03:38:16;;;;;;;51.40;34.40;;;;;;;7.36;80.01;98328.70;433626;1266;99247;-40
2022/09/25 03:48:24;;;;;;;62.80;35.50;;;;;;;7.44;80.08;98316.91;434150;1267;108876;-40
2022/09/25 03:58:31;;;;;;;66.00;38.10;;;;;;;7.47;80.06;98309.76;434047;1266;99266;-40
2022/09/25 04:08:39;;;;;;;63.20;39.60;;;;;;;7.38;80.20;98303.75;434407;1266;112321;-39
2022/09/25 04:18:46;;;;;;;52.20;34.00;;;;;;;7.36;80.26;98306.38;433924;1268;108900;-40
2022/09/25 04:28:54;;;;;;;52.90;32.10;;;;;;;7.44;80.24;98316.02;434297;1266;99224;-40
2022/09/25 04:39:01;;;;;;;39.40;29.70;;;;;;;7.47;80.17;98318.79;434040;1267;108814;-40
2022/09/25 04:49:09;;;;;;;53.40;31.40;;;;;;;7.46;80.27;98316.86;434248;1267;98840;-40
2022/09/25 05:09:22;;;;;;;50.70;33.70;;;;;;;7.61;80.46;98326.34;433793;1266;108657;-40
2022/09/25 05:29:36;;;;;;;51.90;32.30;;;;;;;7.80;80.61;98323.84;434192;1267;108838;-40
2022/09/25 05:39:44;;;;;;;50.60;30.70;;;;;;;8.05;80.75;98326.34;434135;1266;98926;-40
2022/09/25 05:49:50;;;;;;;44.60;30.50;;;;;;;8.53;80.94;98325.60;433974;1266;109877;-40
2022/09/25 06:10:05;;;;;;;53.70;34.90;;;;;;;9.20;80.91;98315.59;434235;1267;99253;-40
2022/09/25 06:20:12;;;;;;;47.20;31.60;;;;;;;9.48;80.78;98320.92;433098;1266;217204;-41
2022/09/25 06:30:26;;;;;;;43.80;29.60;;;;;;;9.86;80.44;98316.59;433864;1266;98910;-40
2022/09/25 06:40:36;;;;;;;45.60;30.00;;;;;;;10.20;80.49;98307.60;433928;1266;112364;-40
2022/09/25 06:50:46;;;;;;;45.30;32.60;;;;;;;10.40;80.31;98306.25;434051;1267;108706;-39
2022/09/25 07:00:53;;;;;;;;;;;;;;;10.36;80.22;98305.11;433917;1266;99296;-40
2022/09/25 07:21:07;;;;;;;49.30;30.10;;;;;;;10.66;80.24;98307.63;434158;1266;99897;-39
2022/09/25 07:41:23;;;;;;;;;;;;;;;11.31;80.28;98310.23;434024;1267;108787;-39
2022/09/25 07:51:31;;;;;;;41.10;30.90;;;;;;;11.45;80.16;98302.64;434158;1266;98872;-39
2022/09/25 08:01:38;;;;;;;45.90;31.70;;;;;;;11.74;80.20;98309.36;434180;1267;108770;-40
2022/09/25 08:11:52;;;;;;;37.60;27.20;;;;;;;12.06;79.84;98315.84;434531;1266;98252;-40
2022/09/25 08:21:59;;;;;;;40.70;29.20;;;;;;;12.41;79.79;98310.86;433761;1266;112330;-40
2022/09/25 08:32:08;;;;;;;39.50;25.90;;;;;;;12.95;79.61;98296.92;433994;1266;108909;-39
2022/09/25 08:42:14;;;;;;;35.40;23.80;;;;;;;13.29;79.36;98293.64;434320;1268;99904;-40
2022/09/25 08:52:22;;;;;;;35.00;23.70;;;;;;;13.78;79.20;98293.36;433655;1266;109089;-41
2022/09/25 09:02:37;;;;;;;34.00;19.70;;;;;;;14.14;78.58;98279.58;434186;1266;98085;-41
2022/09/25 09:12:42;;;;;;;25.40;18.20;;;;;;;14.71;78.21;98271.44;434049;1267;112536;-40
2022/09/25 09:33:14;;;;;;;27.20;17.50;;;;;;;15.52;76.83;98260.89;433795;1266;98837;-41
2022/09/25 09:43:23;;;;;;;24.00;17.30;;;;;;;16.43;76.84;98260.15;434375;1266;106949;-40
2022/09/25 10:03:42;;;;;;;22.80;16.40;;;;;;;16.45;74.61;98249.73;433849;1266;113165;-40
2022/09/25 10:13:49;;;;;;;21.20;15.10;;;;;;;16.50;74.30;98233.16;433891;1266;109223;-41
2022/09/25 10:23:58;;;;;;;24.30;13.90;;;;;;;17.21;74.46;98229.23;434064;1265;98815;-40
2022/09/25 10:34:04;;;;;;;23.20;14.30;;;;;;;17.35;73.23;98230.96;434438;1267;108864;-40
2022/09/25 10:44:19;;;;;;;21.30;12.90;;;;;;;16.95;72.32;98222.43;433787;1267;98059;-41
2022/09/25 10:54:27;;;;;;;17.50;10.30;;;;;;;16.78;72.20;98215.95;434188;1267;111388;-40
2022/09/25 11:04:34;;;;;;;16.20;11.20;;;;;;;16.98;72.00;98208.36;433740;1266;109492;-40
2022/09/25 11:14:54;;;;;;;15.30;11.20;;;;;;;17.29;71.54;98195.77;434092;1267;98013;-39
2022/09/25 11:25:06;;;;;;;13.90;9.60;;;;;;;17.18;71.13;98187.21;434096;1266;112614;-41
2022/09/25 11:35:28;;;;;;;17.00;11.20;;;;;;;17.27;70.80;98179.48;433531;1266;108931;-41
2022/09/25 11:45:42;;;;;;;9.80;8.70;;;;;;;17.44;70.60;98184.09;434048;1266;99250;-42
2022/09/25 11:56:05;;;;;;;13.80;8.80;;;;;;;17.43;69.93;98184.38;434141;1267;112461;-41
2022/09/25 12:06:33;;;;;;;9.50;7.40;;;;;;;17.53;69.55;98191.01;434024;1266;108821;-41
2022/09/25 12:16:43;;;;;;;8.20;6.80;;;;;;;17.42;68.76;98187.33;434105;1267;99327;-41
2022/09/25 12:26:54;;;;;;;11.50;9.20;;;;;;;17.41;67.51;98165.95;433808;1267;108952;-42
2022/09/25 12:37:01;;;;;;;11.20;9.50;;;;;;;17.30;67.15;98144.02;433813;1266;98885;-41
2022/09/25 12:47:07;;;;;;;14.60;11.20;;;;;;;17.29;67.13;98139.44;434436;1266;112374;-41
2022/09/25 12:57:19;;;;;;;13.90;9.10;;;;;;;17.14;66.26;98138.16;434114;1266;108871;-41
2022/09/25 13:07:35;;;;;;;10.80;7.60;;;;;;;17.17;66.26;98131.55;434190;1266;99225;-39
2022/09/25 13:17:44;;;;;;;9.40;7.40;;;;;;;17.12;65.87;98115.09;433847;1267;108868;-38
2022/09/25 13:27:53;;;;;;;9.30;6.80;;;;;;;17.00;65.97;98107.21;433808;1268;99216;-40
2022/09/25 13:48:39;;;;;;;4.70;3.80;;;;;;;16.65;64.58;98104.41;434036;1268;108745;-40
2022/09/25 13:59:23;;;;;;;6.00;4.90;;;;;;;16.53;64.18;98102.84;434198;1266;99236;-40
2022/09/25 14:09:30;;;;;;;8.20;5.30;;;;;;;16.21;63.61;98101.58;434051;1267;108926;-40
2022/09/25 14:19:43;;;;;;;8.00;5.90;;;;;;;16.04;63.81;98102.50;433920;1266;99270;-44
2022/09/25 14:29:51;;;;;;;11.60;5.80;;;;;;;15.87;63.82;98089.50;434078;1266;112361;-40
2022/09/25 14:40:03;;;;;;;7.40;5.30;;;;;;;15.83;64.35;98086.52;434045;1266;108915;-41
2022/09/25 14:50:11;;;;;;;7.20;5.40;;;;;;;15.66;64.62;98079.66;433971;1268;99248;-40
2022/09/25 15:10:33;;;;;;;14.90;8.90;;;;;;;15.74;64.63;98065.32;434175;1268;97943;-40
2022/09/25 15:20:47;;;;;;;14.40;9.40;;;;;;;15.82;64.78;98062.64;434040;1268;112627;-39
2022/09/25 15:30:55;;;;;;;15.80;9.50;;;;;;;15.73;65.01;98067.83;434159;1266;108728;-40
2022/09/25 15:41:06;;;;;;;14.40;9.70;;;;;;;15.47;65.51;98053.02;434148;1266;97959;-40
2022/09/25 15:51:17;;;;;;;16.80;9.10;;;;;;;15.25;66.28;98038.81;434268;1266;108986;-40
2022/09/25 16:11:53;;;;;;;17.60;11.80;;;;;;;14.82;67.18;98035.30;434325;1267;112615;-40
2022/09/25 16:21:59;;;;;;;16.40;11.70;;;;;;;14.59;67.75;98034.42;433908;1267;108739;-40
2022/09/25 16:32:15;;;;;;;18.30;13.10;;;;;;;14.28;68.17;98025.02;434157;1266;98983;-40
2022/09/25 16:42:26;;;;;;;21.70;15.50;;;;;;;13.96;68.87;98027.64;434278;1266;108738;-40
2022/09/25 16:52:39;;;;;;;28.60;19.00;;;;;;;13.59;69.48;98029.95;434253;1268;99225;-40
2022/09/25 17:02:47;;;;;;;40.70;24.30;;;;;;;13.31;70.09;98036.70;433975;1267;112051;-42
2022/09/25 17:12:54;;;;;;;50.80;30.40;;;;;;;13.06;70.57;98040.19;433964;1268;108841;-40
2022/09/25 17:23:01;;;;;;;47.60;31.10;;;;;;;12.86;71.12;98041.06;433177;1267;99226;-41
2022/09/25 17:33:12;;;;;;;51.90;35.00;;;;;;;12.69;71.64;98038.31;433877;1268;108428;-41
2022/09/25 17:43:20;;;;;;;61.20;38.40;;;;;;;12.52;72.23;98040.34;434263;1267;99259;-41
2022/09/25 17:53:29;;;;;;;64.30;42.80;;;;;;;12.37;72.74;98043.02;434085;1267;112368;-41
2022/09/25 18:03:35;;;;;;;;;;;;;;;12.23;73.23;98043.17;433660;1268;109039;-39
2022/09/25 18:13:43;;;;;;;74.60;48.20;;;;;;;12.07;73.64;98037.60;434120;1266;99264;-39
2022/09/25 18:23:51;;;;;;;72.70;49.60;;;;;;;11.99;74.21;98031.90;434014;1268;150180;-39
2022/09/25 18:33:58;;;;;;;67.70;45.20;;;;;;;11.89;74.64;98019.71;433887;1266;99225;-39
2022/09/25 18:54:12;;;;;;;67.60;45.10;;;;;;;11.83;75.63;98023.61;434120;1267;108853;-39
2022/09/25 19:04:19;;;;;;;71.00;47.70;;;;;;;11.75;75.84;98028.02;434426;1265;99509;-39
2022/09/25 19:14:27;;;;;;;76.00;51.90;;;;;;;11.58;76.01;98028.92;433846;1268;107741;-40
2022/09/25 19:24:35;;;;;;;69.30;47.00;;;;;;;11.39;76.46;98026.00;434115;1267;98824;-40
2022/09/25 19:34:43;;;;;;;66.00;47.70;;;;;;;11.24;76.77;98019.21;434365;1266;113324;-40
2022/09/25 19:44:49;;;;;;;73.00;50.30;;;;;;;11.14;77.35;98023.08;433550;1268;110521;-39
2022/09/25 19:54:56;;;;;;;75.40;51.60;;;;;;;11.09;77.66;98019.89;433959;1268;98834;-39
2022/09/25 20:05:04;;;;;;;76.80;51.60;;;;;;;10.97;77.87;98012.77;434151;1266;109076;-40
2022/09/25 20:15:12;;;;;;;69.90;50.10;;;;;;;10.89;78.21;98012.47;434008;1267;98784;-40
2022/09/25 20:25:19;;;;;;;72.80;49.90;;;;;;;10.82;78.47;98009.04;433995;1266;112674;-42
2022/09/25 20:35:27;;;;;;;73.00;50.00;;;;;;;10.69;78.63;98008.36;433717;1267;108953;-41
2022/09/25 20:45:34;;;;;;;68.10;47.90;;;;;;;10.57;78.96;98004.02;433578;1266;99910;-40
2022/09/25 20:55:40;;;;;;;68.80;49.70;;;;;;;10.56;79.40;98001.25;434438;1266;108452;-38
2022/09/25 21:05:47;;;;;;;79.70;52.70;;;;;;;10.56;79.36;97997.14;434074;1268;99251;-38
2022/09/25 21:16:02;;;;;;;73.60;49.50;;;;;;;10.45;79.65;97991.87;433892;1268;111457;-39
2022/09/25 21:26:12;;;;;;;69.00;46.90;;;;;;;10.41;79.99;97975.95;434025;1266;109514;-40
2022/09/25 21:36:19;;;;;;;71.00;47.40;;;;;;;10.36;80.25;97968.11;434159;1267;99331;-39
2022/09/25 21:46:28;;;;;;;71.50;48.90;;;;;;;10.29;80.39;97957.88;434136;1266;108869;-40
2022/09/25 21:56:36;;;;;;;67.20;47.40;;;;;;;10.18;80.42;97957.45;434156;1267;99234;-40
2022/09/25 22:06:46;;;;;;;64.70;47.10;;;;;;;10.04;80.60;97952.00;433989;1266;112334;-41
2022/09/25 22:16:54;;;;;;;59.80;43.90;;;;;;;9.97;80.92;97943.94;433814;1266;108748;-40
2022/09/25 22:27:01;;;;;;;71.20;46.60;;;;;;;9.92;81.03;97930.36;434279;1267;97966;-40
2022/09/25 22:37:09;;;;;;;70.90;47.30;;;;;;;9.87;81.11;97930.73;434056;1268;109217;-39
2022/09/25 22:47:16;;;;;;;70.90;47.90;;;;;;;9.81;81.39;97929.42;433873;1266;98831;-41
2022/09/25 22:57:22;;;;;;;72.30;48.10;;;;;;;9.74;81.47;97926.11;433949;1267;112471;-41
2022/09/25 23:07:29;;;;;;;67.60;46.40;;;;;;;9.61;81.57;97920.41;433725;1267;108927;-40
2022/09/25 23:17:36;;;;;;;68.10;46.70;;;;;;;9.54;81.82;97912.91;433873;1266;99174;-40
2022/09/25 23:27:43;;;;;;;66.50;43.10;;;;;;;9.37;81.87;97904.67;434322;1266;107971;-40
2022/09/25 23:37:50;;;;;;;53.60;39.00;;;;;;;9.22;82.15;97899.98;434312;1266;99235;-41
2022/09/25 23:47:57;;;;;;;63.30;41.20;;;;;;;9.12;82.36;97885.11;433912;1266;112456;-41
2022/09/25 23:58:05;;;;;;;54.90;39.60;;;;;;;9.09;82.63;97876.56;433215;1267;108929;-41
